createdAt,value
2023-02-27T00:02:09.230Z,2.92
2023-02-27T00:04:38.016Z,2.30
2023-02-27T00:07:07.258Z,2.30
2023-02-27T00:09:36.023Z,2.92
2023-02-27T00:12:04.659Z,2.95
2023-02-27T00:14:32.783Z,2.92
2023-02-27T00:17:02.756Z,2.63
2023-02-27T00:19:31.322Z,2.60
2023-02-27T00:21:59.450Z,2.13
2023-02-27T00:24:27.905Z,2.60
2023-02-27T00:26:56.488Z,3.10
2023-02-27T00:29:24.935Z,2.65
2023-02-27T00:31:53.646Z,3.00
2023-02-27T00:34:24.019Z,2.65
2023-02-27T00:36:52.214Z,2.90
2023-02-27T00:39:20.350Z,2.45
2023-02-27T00:41:49.073Z,3.10
2023-02-27T00:44:17.320Z,2.80
2023-02-27T00:46:45.482Z,3.30
2023-02-27T00:49:14.219Z,3.30
2023-02-27T00:51:43.597Z,2.10
2023-02-27T00:54:11.594Z,3.10
2023-02-27T00:56:41.608Z,3.55
2023-02-27T00:59:10.132Z,2.80
2023-02-27T01:01:38.434Z,3.10
2023-02-27T01:04:07.251Z,2.75
2023-02-27T01:06:35.390Z,3.13
2023-02-27T01:09:05.527Z,3.25
2023-02-27T01:11:34.405Z,3.53
2023-02-27T01:14:03.182Z,3.17
2023-02-27T01:16:31.671Z,2.80
2023-02-27T01:19:00.370Z,2.63
2023-02-27T01:21:29.669Z,3.47
2023-02-27T01:23:58.087Z,3.25
2023-02-27T01:26:28.312Z,3.10
2023-02-27T01:28:56.591Z,3.55
2023-02-27T01:31:24.947Z,3.92
2023-02-27T01:33:54.008Z,4.18
2023-02-27T01:36:22.715Z,3.20
2023-02-27T01:38:51.065Z,3.42
2023-02-27T01:41:19.855Z,3.22
2023-02-27T01:44:01.229Z,3.30
2023-02-27T01:46:30.487Z,3.38
2023-02-27T01:49:01.624Z,2.92
2023-02-27T01:51:35.224Z,3.28
2023-02-27T01:54:07.293Z,2.90
2023-02-27T01:56:36.260Z,2.97
2023-02-27T01:59:11.113Z,2.38
2023-02-27T02:01:40.397Z,3.15
2023-02-27T02:04:13.965Z,3.33
2023-02-27T02:06:48.399Z,3.42
2023-02-27T02:09:19.029Z,2.65
2023-02-27T02:11:47.040Z,3.00
2023-02-27T02:14:17.011Z,3.20
2023-02-27T02:17:12.314Z,2.65
2023-02-27T02:20:13.989Z,3.05
2023-02-27T02:23:17.190Z,4.85
2023-02-27T02:26:31.042Z,2.80
2023-02-27T02:29:34.569Z,2.70
2023-02-27T02:32:40.131Z,2.45
2023-02-27T02:35:45.738Z,3.00
2023-02-27T02:38:50.372Z,2.20
2023-02-27T02:41:29.299Z,2.30
2023-02-27T02:44:06.578Z,2.22
2023-02-27T02:46:45.644Z,2.15
2023-02-27T02:49:23.730Z,2.58
2023-02-27T02:52:01.770Z,2.40
2023-02-27T02:54:38.364Z,2.45
2023-02-27T02:57:13.209Z,1.80
2023-02-27T02:59:47.260Z,2.20
2023-02-27T03:02:19.692Z,1.85
2023-02-27T03:04:55.709Z,1.67
2023-02-27T03:07:31.799Z,2.17
2023-02-27T03:10:06.260Z,2.50
2023-02-27T03:12:40.771Z,2.08
2023-02-27T03:15:17.755Z,2.10
2023-02-27T03:17:52.245Z,1.90
2023-02-27T03:20:28.532Z,2.20
2023-02-27T03:23:01.113Z,2.58
2023-02-27T03:25:30.605Z,2.92
2023-02-27T03:28:05.345Z,2.70
2023-02-27T03:30:39.066Z,2.38
2023-02-27T03:33:14.494Z,2.63
2023-02-27T03:35:51.256Z,2.63
2023-02-27T03:38:26.048Z,2.35
2023-02-27T03:41:07.600Z,2.08
2023-02-27T03:43:46.797Z,2.63
2023-02-27T03:46:19.879Z,2.38
2023-02-27T03:48:49.189Z,2.47
2023-02-27T03:51:21.295Z,3.83
2023-02-27T03:53:53.372Z,2.70
2023-02-27T03:56:26.174Z,3.65
2023-02-27T03:58:57.870Z,2.80
2023-02-27T04:01:27.242Z,3.10
2023-02-27T04:04:02.834Z,2.70
2023-02-27T04:06:50.917Z,3.60
2023-02-27T04:09:28.673Z,2.60
2023-02-27T04:12:17.579Z,2.58
2023-02-27T04:14:58.909Z,3.03
2023-02-27T04:17:31.634Z,2.50
2023-02-27T04:20:22.073Z,3.17
2023-02-27T04:22:56.792Z,2.40
2023-02-27T04:25:43.056Z,3.00
2023-02-27T04:28:18.842Z,3.13
2023-02-27T04:30:59.734Z,3.20
2023-02-27T04:33:38.513Z,3.90
2023-02-27T04:36:12.936Z,3.75
2023-02-27T04:38:45.580Z,3.65
2023-02-27T04:41:18.193Z,3.60
2023-02-27T04:43:48.006Z,4.65
2023-02-27T04:46:22.270Z,4.10
2023-02-27T04:48:55.589Z,4.43
2023-02-27T04:51:29.119Z,3.28
2023-02-27T04:54:02.004Z,3.08
2023-02-27T04:56:35.448Z,3.30
2023-02-27T04:59:11.590Z,4.45
2023-02-27T05:01:45.643Z,3.05
2023-02-27T05:04:20.469Z,4.00
2023-02-27T05:06:50.556Z,8.40
2023-02-27T05:09:25.792Z,10.05
2023-02-27T05:11:58.118Z,8.35
2023-02-27T05:14:33.484Z,8.18
2023-02-27T05:17:08.643Z,8.05
2023-02-27T05:19:41.977Z,11.27
2023-02-27T05:22:21.895Z,8.95
2023-02-27T05:24:58.560Z,9.25
2023-02-27T05:27:35.130Z,9.57
2023-02-27T05:30:07.973Z,7.25
2023-02-27T05:32:43.823Z,6.13
2023-02-27T05:35:21.829Z,5.85
2023-02-27T05:37:55.094Z,5.38
2023-02-27T05:40:26.957Z,5.20
2023-02-27T05:43:02.271Z,4.20
2023-02-27T05:45:35.037Z,3.78
2023-02-27T05:48:08.394Z,3.28
2023-02-27T05:50:39.450Z,3.10
2023-02-27T05:53:15.331Z,3.50
2023-02-27T05:55:47.477Z,3.30
2023-02-27T05:58:21.939Z,3.00
2023-02-27T06:00:55.173Z,3.53
2023-02-27T06:03:26.452Z,3.80
2023-02-27T06:05:57.434Z,3.40
2023-02-27T06:08:26.222Z,2.85
2023-02-27T06:10:55.197Z,3.33
2023-02-27T06:13:24.595Z,10.57
2023-02-27T06:15:53.125Z,4.25
2023-02-27T06:18:21.792Z,10.30
2023-02-27T06:20:52.947Z,4.18
2023-02-27T06:23:21.293Z,4.70
2023-02-27T06:25:50.302Z,4.40
2023-02-27T06:28:19.384Z,4.10
2023-02-27T06:30:49.167Z,3.80
2023-02-27T06:33:18.307Z,4.30
2023-02-27T06:35:50.257Z,4.43
2023-02-27T06:38:19.949Z,4.45
2023-02-27T06:40:48.452Z,3.45
2023-02-27T06:43:18.183Z,3.85
2023-02-27T06:45:46.670Z,3.60
2023-02-27T06:48:14.939Z,3.50
2023-02-27T06:50:43.925Z,3.10
2023-02-27T06:53:12.240Z,3.20
2023-02-27T06:55:42.245Z,3.33
2023-02-27T06:58:11.252Z,2.60
2023-02-27T07:00:39.591Z,2.77
2023-02-27T07:03:07.875Z,2.43
2023-02-27T07:05:36.680Z,3.00
2023-02-27T07:08:05.162Z,3.07
2023-02-27T07:10:33.358Z,2.70
2023-02-27T07:13:03.965Z,2.23
2023-02-27T07:15:33.728Z,2.50
2023-02-27T07:18:02.134Z,2.50
2023-02-27T07:20:30.732Z,2.07
2023-02-27T07:22:59.208Z,2.37
2023-02-27T07:25:28.218Z,2.43
2023-02-27T07:27:56.850Z,2.60
2023-02-27T07:30:26.794Z,1.87
2023-02-27T07:32:55.294Z,2.03
2023-02-27T07:35:24.131Z,2.20
2023-02-27T07:37:52.407Z,2.30
2023-02-27T07:40:22.357Z,2.83
2023-02-27T07:42:53.225Z,1.90
2023-02-27T07:45:23.644Z,1.70
2023-02-27T07:47:53.162Z,2.57
2023-02-27T07:50:24.906Z,2.40
2023-02-27T07:52:54.266Z,2.10
2023-02-27T07:55:22.523Z,2.03
2023-02-27T07:57:53.283Z,1.70
2023-02-27T08:00:22.380Z,1.90
2023-02-27T08:02:52.661Z,2.10
2023-02-27T08:05:21.830Z,1.93
2023-02-27T08:07:51.188Z,1.50
2023-02-27T08:10:23.202Z,1.90
2023-02-27T08:12:55.378Z,1.60
2023-02-27T08:15:24.948Z,2.10
2023-02-27T08:17:57.155Z,2.70
2023-02-27T08:20:25.805Z,2.83
2023-02-27T08:22:54.061Z,2.20
2023-02-27T08:25:23.175Z,1.43
2023-02-27T08:27:53.191Z,1.90
2023-02-27T08:30:21.436Z,2.40
2023-02-27T08:32:51.508Z,2.03
2023-02-27T08:35:21.800Z,1.67
2023-02-27T08:37:50.485Z,1.77
2023-02-27T08:40:19.225Z,1.60
2023-02-27T08:42:49.313Z,1.70
2023-02-27T08:45:17.994Z,2.10
2023-02-27T08:47:46.604Z,1.73
2023-02-27T08:50:15.750Z,2.30
2023-02-27T08:52:45.085Z,2.00
2023-02-27T08:55:13.671Z,4.03
2023-02-27T08:57:42.511Z,1.93
2023-02-27T09:00:14.741Z,1.80
2023-02-27T09:02:45.429Z,2.17
2023-02-27T09:05:13.646Z,1.37
2023-02-27T09:07:52.651Z,2.40
2023-02-27T09:10:22.683Z,1.23
2023-02-27T09:12:51.389Z,1.27
2023-02-27T09:15:20.993Z,2.13
2023-02-27T09:17:50.961Z,2.20
2023-02-27T09:20:19.255Z,2.13
2023-02-27T09:22:48.727Z,2.17
2023-02-27T09:25:18.067Z,2.07
2023-02-27T09:27:48.395Z,1.50
2023-02-27T09:30:16.748Z,1.83
2023-02-27T09:32:45.799Z,1.50
2023-02-27T09:35:15.836Z,1.30
2023-02-27T09:37:44.953Z,1.10
2023-02-27T09:40:22.237Z,1.23
2023-02-27T09:42:53.729Z,1.20
2023-02-27T09:45:25.574Z,1.30
2023-02-27T09:47:57.938Z,1.20
2023-02-27T09:50:49.846Z,1.40
2023-02-27T09:53:27.386Z,1.37
2023-02-27T09:56:02.082Z,1.50
2023-02-27T09:58:44.634Z,1.30
2023-02-27T10:01:20.603Z,1.30
2023-02-27T10:04:22.329Z,1.23
2023-02-27T10:06:55.035Z,1.30
2023-02-27T10:09:34.034Z,1.30
2023-02-27T10:12:15.821Z,1.20
2023-02-27T10:14:47.056Z,1.43
2023-02-27T10:17:23.112Z,1.70
2023-02-27T10:19:53.578Z,1.30
2023-02-27T10:22:30.577Z,1.30
2023-02-27T10:25:08.953Z,0.87
2023-02-27T10:27:46.332Z,1.00
2023-02-27T10:30:29.469Z,1.73
2023-02-27T10:33:09.103Z,1.17
2023-02-27T10:35:40.409Z,0.90
2023-02-27T10:38:14.789Z,1.00
2023-02-27T10:40:44.471Z,1.27
2023-02-27T10:43:19.368Z,0.90
2023-02-27T10:45:47.684Z,1.30
2023-02-27T10:48:16.805Z,0.90
2023-02-27T10:50:47.955Z,1.00
2023-02-27T10:53:22.036Z,0.80
2023-02-27T10:56:00.803Z,1.17
2023-02-27T10:58:34.917Z,1.00
2023-02-27T11:01:06.311Z,1.20
2023-02-27T11:03:38.229Z,1.20
2023-02-27T11:06:11.788Z,1.20
2023-02-27T11:08:40.694Z,1.00
2023-02-27T11:11:12.569Z,1.10
2023-02-27T11:13:43.998Z,1.47
2023-02-27T11:16:15.842Z,1.07
2023-02-27T11:18:45.403Z,2.13
2023-02-27T11:21:21.445Z,1.10
2023-02-27T11:23:57.198Z,1.47
2023-02-27T11:26:33.544Z,1.40
2023-02-27T11:29:15.075Z,0.90
2023-02-27T11:31:50.108Z,0.90
2023-02-27T11:34:34.125Z,1.10
2023-02-27T11:37:05.659Z,1.13
2023-02-27T11:39:38.340Z,0.80
2023-02-27T11:42:20.427Z,0.87
2023-02-27T11:45:03.574Z,0.90
2023-02-27T11:47:36.309Z,0.90
2023-02-27T11:50:35.468Z,1.00
2023-02-27T11:53:22.555Z,0.90
2023-02-27T11:55:57.244Z,1.47
2023-02-27T11:58:30.515Z,1.00
2023-02-27T12:01:10.733Z,1.00
2023-02-27T12:03:48.840Z,0.70
2023-02-27T12:06:27.016Z,0.70
2023-02-27T12:09:01.864Z,1.13
2023-02-27T12:11:37.218Z,1.10
2023-02-27T12:14:17.478Z,1.07
2023-02-27T12:16:52.330Z,1.07
2023-02-27T12:19:27.697Z,1.37
2023-02-27T12:22:01.188Z,1.40
2023-02-27T12:24:35.288Z,2.00
2023-02-27T12:27:14.928Z,3.53
2023-02-27T12:29:49.703Z,7.40
2023-02-27T12:32:25.244Z,3.10
2023-02-27T12:34:56.922Z,2.73
2023-02-27T12:37:28.081Z,4.00
2023-02-27T12:40:00.049Z,2.10
2023-02-27T12:42:49.595Z,1.70
2023-02-27T12:45:54.763Z,1.80
2023-02-27T12:48:37.163Z,1.70
2023-02-27T12:51:19.928Z,2.10
2023-02-27T12:54:12.270Z,1.90
2023-02-27T12:56:52.464Z,2.30
2023-02-27T12:59:35.880Z,1.70
2023-02-27T13:02:20.041Z,2.03
2023-02-27T13:05:01.467Z,3.80
2023-02-27T13:07:36.431Z,2.13
2023-02-27T13:10:12.740Z,2.00
2023-02-27T13:12:46.684Z,1.80
2023-02-27T13:15:19.828Z,1.90
2023-02-27T13:17:52.516Z,1.90
2023-02-27T13:20:40.646Z,2.20
2023-02-27T13:23:20.499Z,2.10
2023-02-27T13:25:52.248Z,2.40
2023-02-27T13:28:26.785Z,2.20
2023-02-27T13:31:08.473Z,2.10
2023-02-27T13:33:44.057Z,1.87
2023-02-27T13:36:18.113Z,2.67
2023-02-27T13:38:48.319Z,3.37
2023-02-27T13:41:39.027Z,2.23
2023-02-27T13:44:46.980Z,2.63
2023-02-27T13:47:40.826Z,2.63
2023-02-27T13:50:46.894Z,2.00
2023-02-27T13:53:20.793Z,3.20
2023-02-27T13:55:49.600Z,1.73
2023-02-27T13:58:24.651Z,2.50
2023-02-27T14:01:00.439Z,2.10
2023-02-27T14:03:32.840Z,2.73
2023-02-27T14:06:07.467Z,3.00
2023-02-27T14:08:50.508Z,2.53
2023-02-27T14:11:24.400Z,1.63
2023-02-27T14:14:08.102Z,2.00
2023-02-27T14:17:07.569Z,2.17
2023-02-27T14:19:50.405Z,3.10
2023-02-27T14:23:09.091Z,2.00
2023-02-27T14:25:43.146Z,2.40
2023-02-27T14:28:23.635Z,1.90
2023-02-27T14:30:58.948Z,1.80
2023-02-27T14:33:40.077Z,1.50
2023-02-27T14:36:16.059Z,1.20
2023-02-27T14:38:45.080Z,1.40
2023-02-27T14:41:32.916Z,1.67
2023-02-27T14:44:01.827Z,1.63
2023-02-27T14:46:32.402Z,1.47
2023-02-27T14:49:03.491Z,2.40
2023-02-27T14:51:33.969Z,2.53
2023-02-27T14:54:05.799Z,2.20
2023-02-27T14:56:37.989Z,2.40
2023-02-27T14:59:23.697Z,2.10
2023-02-27T15:01:53.160Z,2.70
2023-02-27T15:04:24.426Z,3.00
2023-02-27T15:06:54.579Z,2.43
2023-02-27T15:09:26.039Z,2.30
2023-02-27T15:12:03.958Z,2.20
2023-02-27T15:14:36.439Z,2.10
2023-02-27T15:17:05.289Z,2.37
2023-02-27T15:19:33.874Z,2.40
2023-02-27T15:22:05.679Z,3.10
2023-02-27T15:24:49.174Z,2.70
2023-02-27T15:27:22.628Z,2.43
2023-02-27T15:29:53.328Z,3.30
2023-02-27T15:32:29.273Z,2.80
2023-02-27T15:34:59.130Z,2.50
2023-02-27T15:37:31.279Z,3.57
2023-02-27T15:40:01.575Z,3.27
2023-02-27T15:42:37.119Z,3.57
2023-02-27T15:45:06.882Z,3.30
2023-02-27T15:47:37.149Z,4.20
2023-02-27T15:50:12.906Z,3.60
2023-02-27T15:52:44.242Z,3.73
2023-02-27T15:55:15.803Z,3.97
2023-02-27T15:58:00.682Z,3.80
2023-02-27T16:00:32.367Z,4.33
2023-02-27T16:03:01.716Z,3.50
2023-02-27T16:05:37.367Z,3.63
2023-02-27T16:08:07.472Z,3.38
2023-02-27T16:10:38.736Z,3.50
2023-02-27T16:13:35.485Z,4.45
2023-02-27T16:16:06.947Z,4.05
2023-02-27T16:18:38.861Z,5.38
2023-02-27T16:21:13.406Z,3.70
2023-02-27T16:23:42.913Z,4.38
2023-02-27T16:26:28.437Z,4.47
2023-02-27T16:29:01.373Z,4.13
2023-02-27T16:31:32.024Z,4.57
2023-02-27T16:34:02.410Z,4.03
2023-02-27T16:36:34.356Z,4.50
2023-02-27T16:39:03.262Z,4.57
2023-02-27T16:41:31.495Z,4.90
2023-02-27T16:44:01.767Z,5.40
2023-02-27T16:46:31.103Z,5.68
2023-02-27T16:49:14.192Z,5.13
2023-02-27T16:51:48.310Z,5.72
2023-02-27T16:54:16.748Z,5.60
2023-02-27T16:56:47.022Z,6.00
2023-02-27T16:59:30.792Z,5.47
2023-02-27T17:02:00.242Z,6.55
2023-02-27T17:04:30.433Z,5.65
2023-02-27T17:07:00.927Z,6.28
2023-02-27T17:09:29.511Z,6.50
2023-02-27T17:11:58.657Z,8.55
2023-02-27T17:14:28.661Z,7.60
2023-02-27T17:16:58.428Z,7.57
2023-02-27T17:19:27.234Z,7.50
2023-02-27T17:21:56.637Z,13.18
2023-02-27T17:24:24.774Z,6.28
2023-02-27T17:26:53.002Z,5.45
2023-02-27T17:29:21.778Z,6.07
2023-02-27T17:31:51.934Z,5.63
2023-02-27T17:34:20.220Z,5.80
2023-02-27T17:36:50.661Z,5.13
2023-02-27T17:39:18.724Z,4.90
2023-02-27T17:41:47.720Z,4.80
2023-02-27T17:44:16.726Z,3.95
2023-02-27T17:46:44.872Z,4.18
2023-02-27T17:49:14.471Z,4.72
2023-02-27T17:51:43.334Z,4.85
2023-02-27T17:54:11.413Z,4.32
2023-02-27T17:56:40.544Z,4.35
2023-02-27T17:59:08.919Z,4.40
2023-02-27T18:01:37.275Z,4.35
2023-02-27T18:04:07.573Z,4.55
2023-02-27T18:06:37.707Z,3.60
2023-02-27T18:09:06.978Z,4.65
2023-02-27T18:11:37.919Z,4.07
2023-02-27T18:14:06.814Z,4.30
2023-02-27T18:16:35.620Z,3.53
2023-02-27T18:19:04.814Z,5.63
2023-02-27T18:21:33.789Z,5.00
2023-02-27T18:24:04.586Z,4.68
2023-02-27T18:26:35.000Z,4.65
2023-02-27T18:29:06.388Z,4.50
2023-02-27T18:31:37.782Z,4.25
2023-02-27T18:34:06.783Z,4.95
2023-02-27T18:36:35.608Z,4.40
2023-02-27T18:39:06.543Z,4.82
2023-02-27T18:41:35.761Z,5.63
2023-02-27T18:44:04.561Z,5.18
2023-02-27T18:46:33.318Z,5.70
2023-02-27T18:49:01.676Z,4.63
2023-02-27T18:51:30.375Z,5.18
2023-02-27T18:54:00.141Z,6.00
2023-02-27T18:56:33.241Z,5.50
2023-02-27T18:59:05.532Z,6.28
2023-02-27T19:01:36.287Z,4.47
2023-02-27T19:04:06.430Z,5.70
2023-02-27T19:06:37.114Z,5.53
2023-02-27T19:09:06.608Z,5.43
2023-02-27T19:11:36.105Z,5.10
2023-02-27T19:14:06.842Z,5.50
2023-02-27T19:16:35.737Z,6.28
2023-02-27T19:19:05.799Z,7.25
2023-02-27T19:21:35.604Z,6.75
2023-02-27T19:24:04.405Z,4.35
2023-02-27T19:26:35.207Z,4.20
2023-02-27T19:29:03.778Z,5.40
2023-02-27T19:31:32.684Z,4.30
2023-02-27T19:34:00.723Z,4.35
2023-02-27T19:36:31.292Z,5.47
2023-02-27T19:38:59.884Z,5.35
2023-02-27T19:41:28.824Z,5.43
2023-02-27T19:43:58.614Z,5.22
2023-02-27T19:46:29.889Z,6.63
2023-02-27T19:49:02.060Z,6.20
2023-02-27T19:51:29.992Z,7.50
2023-02-27T19:53:57.920Z,8.40
2023-02-27T19:56:27.732Z,7.55
2023-02-27T19:58:57.814Z,6.88
2023-02-27T20:01:28.302Z,6.13
2023-02-27T20:03:59.284Z,5.47
2023-02-27T20:06:29.943Z,6.63
2023-02-27T20:08:59.734Z,7.38
2023-02-27T20:11:32.900Z,6.32
2023-02-27T20:14:02.788Z,6.35
2023-02-27T20:16:34.892Z,5.90
2023-02-27T20:19:03.741Z,4.75
2023-02-27T20:21:33.170Z,5.10
2023-02-27T20:24:02.178Z,4.50
2023-02-27T20:26:32.446Z,4.70
2023-02-27T20:29:04.325Z,4.75
2023-02-27T20:31:35.338Z,4.00
2023-02-27T20:34:06.493Z,4.93
2023-02-27T20:36:35.832Z,4.10
2023-02-27T20:39:04.693Z,5.68
2023-02-27T20:41:33.766Z,3.40
2023-02-27T20:44:03.344Z,3.40
2023-02-27T20:46:31.256Z,3.47
2023-02-27T20:49:01.593Z,2.88
2023-02-27T20:51:31.685Z,2.50
2023-02-27T20:54:01.678Z,2.40
2023-02-27T20:56:32.190Z,3.25
2023-02-27T20:59:02.706Z,2.28
2023-02-27T21:01:32.982Z,2.35
2023-02-27T21:04:01.813Z,2.40
2023-02-27T21:06:30.887Z,2.20
2023-02-27T21:09:00.107Z,2.60
2023-02-27T21:11:30.715Z,2.47
2023-02-27T21:14:01.622Z,2.35
2023-02-27T21:16:30.896Z,2.95
2023-02-27T21:18:59.277Z,2.78
2023-02-27T21:21:30.209Z,2.03
2023-02-27T21:23:59.794Z,2.85
2023-02-27T21:26:32.357Z,3.30
2023-02-27T21:29:05.002Z,3.15
2023-02-27T21:31:37.071Z,3.03
2023-02-27T21:34:08.135Z,2.72
2023-02-27T21:36:38.705Z,3.03
2023-02-27T21:39:08.386Z,3.42
2023-02-27T21:41:36.690Z,4.63
2023-02-27T21:44:08.384Z,4.45
2023-02-27T21:46:38.588Z,4.03
2023-02-27T21:49:07.008Z,4.25
2023-02-27T21:51:41.056Z,4.70
2023-02-27T21:54:11.576Z,3.42
2023-02-27T21:56:40.508Z,3.90
2023-02-27T21:59:08.618Z,3.50
2023-02-27T22:01:38.711Z,4.30
2023-02-27T22:04:08.018Z,3.42
2023-02-27T22:06:37.005Z,3.95
2023-02-27T22:09:06.676Z,4.00
2023-02-27T22:11:36.099Z,4.15
2023-02-27T22:14:06.467Z,3.90
2023-02-27T22:16:35.150Z,4.40
2023-02-27T22:19:08.609Z,4.40
2023-02-27T22:21:37.927Z,3.78
2023-02-27T22:24:07.227Z,3.50
2023-02-27T22:26:36.176Z,4.10
2023-02-27T22:29:07.419Z,3.80
2023-02-27T22:31:37.926Z,3.75
2023-02-27T22:34:09.171Z,3.35
2023-02-27T22:36:38.708Z,3.25
2023-02-27T22:39:07.338Z,3.90
2023-02-27T22:41:37.357Z,3.75
2023-02-27T22:44:06.436Z,4.05
2023-02-27T22:46:36.951Z,3.72
2023-02-27T22:49:08.742Z,3.35
2023-02-27T22:51:37.505Z,3.22
2023-02-27T22:54:07.174Z,3.90
2023-02-27T22:56:37.454Z,4.00
2023-02-27T22:59:06.243Z,3.65
2023-02-27T23:01:37.790Z,3.95
2023-02-27T23:04:11.567Z,3.58
2023-02-27T23:06:43.706Z,3.25
2023-02-27T23:09:14.800Z,3.50
2023-02-27T23:11:43.461Z,3.40
2023-02-27T23:14:11.523Z,4.55
2023-02-27T23:16:40.093Z,4.38
2023-02-27T23:19:10.306Z,3.67
2023-02-27T23:21:40.199Z,3.45
2023-02-27T23:24:11.905Z,4.20
2023-02-27T23:26:41.251Z,4.47
2023-02-27T23:29:10.078Z,3.70
2023-02-27T23:31:39.438Z,3.75
2023-02-27T23:34:09.537Z,3.08
2023-02-27T23:36:39.276Z,3.60
2023-02-27T23:39:07.997Z,3.85
2023-02-27T23:41:36.176Z,4.10
2023-02-27T23:44:04.803Z,3.65
2023-02-27T23:46:33.164Z,3.60
2023-02-27T23:49:01.947Z,4.70
2023-02-27T23:51:32.461Z,3.90
2023-02-27T23:54:01.044Z,4.13
2023-02-27T23:56:30.380Z,4.13
2023-02-27T23:59:00.835Z,3.85
